Latest Weather Observations for Canberra

IDN60801

Issued at 7:35 pm EDT Wednesday 26 November 2014 (issued every 30 minutes, with the page automatically refreshed every 10 minutes)

About weather observations | Map of weather stations | Latest weather observations for NSW | Other Formats
Station Details ID: 070351 Name: CANBERRA AIRPORT Lat: -35.31 Lon: 149.20 Height: 577.05 m
Data from the previous 72 hours. | See also: Recent months at Canberra
Date/Time
EDT
Temp
°C
App
Temp
°C
Dew
Point
Rel
Hum
%
Delta-T
°C
Wind Press
QNH
hPa
Press
MSL
hPa
Rain
since 9 am
mm
Dir
 
Spd
km/h
Gust
km/h
Spd
kts
Gust
kts
26/07:30pm 18.8 15.3 10.9 60 4.4 E 20 30 11 16 1018.5 - 0.0
26/07:00pm 19.8 14.1 11.3 58 4.8 E 32 41 17 22 1017.4 - 0.0
26/06:30pm 22.2 17.7 10.0 46 6.8 ENE 24 30 13 16 1016.6 - 0.0
26/06:00pm 24.3 19.5 4.6 28 10.1 N 19 26 10 14 1015.8 1014.5 0.0
26/05:30pm 25.3 20.9 5.0 27 10.6 N 17 24 9 13 1015.8 - 0.0
26/05:00pm 26.0 22.5 5.6 27 10.8 NW 13 19 7 10 1015.8 - 0.0
26/04:30pm 25.3 21.2 4.4 26 10.7 NNW 15 28 8 15 1016.0 - 0.0
26/04:00pm 25.2 21.0 3.8 25 10.9 WNW 15 26 8 14 1016.2 - 0.0
26/03:30pm 25.6 21.0 3.5 24 11.2 WNW 17 26 9 14 1016.4 - 0.0
26/03:00pm 26.1 21.7 2.7 22 11.7 W 15 28 8 15 1016.6 1015.3 0.0
26/02:30pm 24.9 20.5 0.4 20 11.7 W 13 20 7 11 1016.9 - 0.0
26/02:00pm 24.0 19.1 2.2 24 10.7 NNE 17 39 9 21 1017.1 - 0.0
26/01:30pm 22.9 18.3 3.9 29 9.5 N 17 28 9 15 1017.6 - 0.0
26/01:00pm 23.5 18.7 4.5 29 9.7 WNW 19 30 10 16 1018.0 - 0.0
26/12:30pm 21.8 17.4 4.8 33 8.6 WNW 17 22 9 12 1018.4 - 0.0
26/12:00pm 20.7 17.9 5.1 36 7.9 W 9 15 5 8 1018.7 1017.5 0.0
26/11:30am 20.5 16.4 4.1 34 8.1 WSW 15 20 8 11 1019.1 - 0.0
26/11:00am 20.6 18.0 7.9 44 6.8 W 11 19 6 10 1019.5 - 0.0
26/10:30am 18.4 15.8 6.3 45 6.2 W 9 22 5 12 1019.6 - 0.0
26/10:00am 18.4 15.2 6.9 47 5.9 NW 13 20 7 11 1019.7 - 0.0
26/09:30am 16.8 14.8 8.5 58 4.4 W 9 11 5 6 1019.9 - 0.0
26/09:00am 16.1 14.5 8.8 62 3.8 NW 7 13 4 7 1020.1 1018.9 0.0
26/08:30am 14.5 13.3 9.7 73 2.6 NNW 6 9 3 5 1020.3 - 0.0
26/08:00am 13.5 12.8 10.1 80 1.8 NW 4 11 2 6 1020.3 - 0.0
26/07:30am 12.1 11.2 11.2 94 0.5 N 7 9 4 5 1020.2 - 0.0
26/07:23am 11.2 10.0 10.3 94 0.5 NNW 7 9 4 5 1020.2 - 0.0
26/07:00am 10.4 9.1 10.1 98 0.2 N 7 7 4 4 1020.2 - 0.0
26/06:30am 9.3 9.1 9.2 99 0.1 CALM 0 0 0 0 1020.1 - 0.0
26/06:11am 8.2 6.4 8.1 99 0.0 E 7 9 4 5 1019.9 - 0.0
26/06:07am 8.1 6.3 8.0 99 0.0 E 7 9 4 5 1019.9 - 0.0
26/06:00am 7.7 5.8 7.6 99 0.0 E 7 9 4 5 1019.9 1018.7 0.0
26/05:48am 7.9 6.3 7.8 99 0.0 E 6 9 3 5 1019.8 - 0.0
26/05:42am 7.4 5.4 7.3 99 0.0 E 7 9 4 5 1019.7 - 0.0
26/05:30am 7.4 5.4 7.1 98 0.1 E 7 7 4 4 1019.7 - 0.0
26/05:08am 7.4 6.7 7.0 97 0.2 CALM 0 0 0 0 1019.5 - 0.0
26/05:05am 7.3 6.6 6.9 97 0.2 CALM 0 0 0 0 1019.5 - 0.0
26/05:00am 7.3 6.5 6.7 96 0.3 CALM 0 6 0 3 1019.4 - 0.0
26/04:30am 7.8 6.7 7.1 95 0.3 N 2 6 1 3 1019.1 - 0.0
26/04:00am 7.8 6.3 6.9 94 0.4 NNE 4 9 2 5 1019.1 - 0.0
26/03:30am 9.0 7.3 8.5 97 0.3 E 7 9 4 5 1019.3 - 0.0
26/03:00am 9.0 7.4 8.7 98 0.2 SE 7 9 4 5 1019.5 1018.2 0.0
26/02:30am 8.7 6.5 7.8 94 0.4 SE 9 11 5 6 1019.6 - 0.0
26/02:00am 9.6 7.9 8.5 93 0.6 SSE 7 9 4 5 1019.9 - 0.0
26/01:30am 10.4 8.7 8.3 87 1.1 SE 7 7 4 4 1020.2 - 0.0
26/01:00am 11.4 10.1 9.1 86 1.2 ESE 6 7 3 4 1020.3 - 0.0
26/12:30am 12.2 11.8 9.6 84 1.4 ESE 2 7 1 4 1020.5 - 0.0
26/12:00am 12.1 10.9 9.5 84 1.4 NNE 6 9 3 5 1020.6 1019.4 0.0
 
Date/Time
EDT
Temp
°C
App
Temp
°C
Dew
Point
Rel
Hum
%
Delta-T
°C
Wind Press
QNH
hPa
Press
MSL
hPa
Rain
since 9 am
mm
Dir
 
Spd
km/h
Gust
km/h
Spd
kts
Gust
kts
25/11:30pm 12.9 12.2 9.9 82 1.6 ENE 4 9 2 5 1020.4 - 0.0
25/11:00pm 11.9 9.9 8.7 81 1.6 NW 9 11 5 6 1020.3 - 0.0
25/10:30pm 13.9 11.5 10.1 78 2.0 ENE 13 19 7 10 1020.1 - 0.0
25/10:00pm 14.5 11.5 9.3 71 2.7 ENE 15 22 8 12 1019.9 - 0.0
25/09:30pm 14.0 10.3 4.6 53 4.5 NE 13 17 7 9 1019.4 - 0.0
25/09:00pm 15.9 12.2 4.6 47 5.5 NW 13 17 7 9 1018.8 1017.6 0.0
25/08:30pm 16.9 12.4 4.3 43 6.1 WNW 17 22 9 12 1018.4 - 0.0
25/08:00pm 17.8 13.7 4.4 41 6.6 W 15 19 8 10 1018.1 - 0.0
25/07:30pm 19.8 14.9 4.3 36 7.7 WNW 19 28 10 15 1017.7 - 0.0
25/07:00pm 21.2 16.0 3.4 31 8.7 W 20 28 11 15 1017.1 - 0.0
25/06:30pm 22.1 16.5 3.3 29 9.3 W 22 30 12 16 1016.8 - 0.0
25/06:00pm 22.6 15.4 3.2 28 9.6 NW 30 39 16 21 1016.5 1015.2 0.0
25/05:30pm 23.3 15.2 3.3 27 10.0 NW 35 44 19 24 1016.2 - 0.0
25/05:00pm 23.7 16.5 3.1 26 10.2 NNW 30 39 16 21 1016.2 - 0.0
25/04:30pm 24.1 17.5 2.3 24 10.7 NW 26 37 14 20 1016.1 - 0.0
25/04:00pm 24.5 19.1 1.4 22 11.2 W 19 28 10 15 1016.0 - 0.0
25/03:30pm 24.5 19.4 0.8 21 11.4 W 17 24 9 13 1015.9 - 0.0
25/03:00pm 23.9 18.8 -1.8 18 11.7 NW 15 26 8 14 1016.0 1014.7 0.0
25/02:30pm 23.5 17.6 -2.2 18 11.6 WNW 19 26 10 14 1016.0 - 0.0
25/02:00pm 23.5 17.1 -1.4 19 11.4 WNW 22 33 12 18 1015.9 - 0.0
25/01:30pm 22.2 16.4 -1.8 20 10.8 W 19 30 10 16 1016.0 - 0.0
25/01:00pm 21.5 17.1 -2.4 20 10.5 NW 11 26 6 14 1016.2 - 0.0
25/12:30pm 21.6 15.9 -3.7 18 10.9 NW 17 22 9 12 1016.5 - 0.0
25/12:00pm 20.6 14.2 -5.3 17 10.7 WNW 20 33 11 18 1016.6 1015.3 0.0
25/11:30am 21.2 14.7 -2.6 20 10.4 WNW 22 33 12 18 1016.3 - 0.0
25/11:00am 19.6 13.4 -4.6 19 10.0 W 19 26 10 14 1016.4 - 0.0
25/10:30am 18.8 12.6 -5.3 19 9.8 NW 19 28 10 15 1016.2 - 0.0
25/10:00am 19.1 12.5 -3.7 21 9.6 W 22 30 12 16 1016.1 - 0.0
25/09:30am 18.6 10.8 -4.1 21 9.4 W 28 37 15 20 1015.9 - 0.0
25/09:00am 18.4 12.0 -2.0 25 8.8 W 22 28 12 15 1015.6 1014.3 5.6
25/08:30am 17.4 11.2 -0.3 30 7.8 WNW 22 30 12 16 1015.3 - 5.6
25/08:00am 16.5 11.3 2.5 39 6.5 W 19 26 10 14 1014.8 - 5.6
25/07:30am 15.2 10.6 3.7 46 5.4 WSW 17 19 9 10 1014.1 - 5.6
25/07:00am 14.7 9.4 5.0 52 4.7 WNW 22 30 12 16 1013.3 - 5.6
25/06:30am 14.9 8.5 5.4 53 4.6 WNW 28 37 15 20 1012.5 - 5.6
25/06:00am 15.5 10.2 6.8 56 4.4 WNW 24 32 13 17 1012.0 1010.6 5.6
25/05:30am 16.3 12.2 8.5 60 4.1 W 20 30 11 16 1011.3 - 5.6
25/05:00am 16.7 13.0 10.3 66 3.5 WNW 20 32 11 17 1010.7 - 5.6
25/04:30am 16.9 14.0 13.0 78 2.2 NW 20 28 11 15 1010.1 - 5.6
25/04:00am 16.5 14.1 14.5 88 1.2 NNW 20 28 11 15 1009.7 - 5.6
25/03:30am 16.9 14.2 14.5 86 1.4 NNW 22 30 12 16 1009.6 - 5.6
25/03:00am 16.5 15.0 14.2 86 1.3 NNW 15 19 8 10 1009.4 1008.1 5.6
25/02:30am 16.3 14.3 13.8 85 1.5 N 17 22 9 12 1009.6 - 5.6
25/02:00am 16.5 14.3 13.4 82 1.8 N 17 19 9 10 1009.1 - 5.6
25/01:30am 16.6 15.3 13.7 83 1.7 NNW 13 15 7 8 1009.3 - 5.6
25/01:00am 16.2 14.8 13.5 84 1.6 NNW 13 15 7 8 1009.7 - 5.6
25/12:30am 17.0 15.6 13.5 80 2.0 WNW 13 19 7 10 1010.4 - 5.6
25/12:00am 17.2 17.1 13.9 81 1.9 NW 7 11 4 6 1011.0 1009.7 5.6
 
Date/Time
EDT
Temp
°C
App
Temp
°C
Dew
Point
Rel
Hum
%
Delta-T
°C
Wind Press
QNH
hPa
Press
MSL
hPa
Rain
since 9 am
mm
Dir
 
Spd
km/h
Gust
km/h
Spd
kts
Gust
kts
24/11:30pm 17.6 16.8 15.0 85 1.6 WNW 13 17 7 9 1012.4 - 5.4
24/11:00pm 18.1 16.5 15.9 87 1.3 W 19 33 10 18 1012.7 - 5.4
24/10:58pm 18.2 16.0 16.0 87 1.3 W 22 35 12 19 1012.7 - 5.4
24/10:39pm 18.9 18.4 17.7 93 0.8 W 17 28 9 15 1012.8 - 4.8
24/10:30pm 19.3 19.8 17.4 89 1.2 W 11 22 6 12 1012.0 - 3.0
24/10:00pm 19.8 19.8 16.3 80 2.2 N 11 13 6 7 1011.2 - 2.0
24/09:30pm 19.6 19.6 16.3 81 2.0 N 11 13 6 7 1011.2 - 2.0
24/09:00pm 19.2 20.8 16.8 86 1.5 NE 4 6 2 3 1011.1 1009.8 2.0
24/08:30pm 18.6 19.3 16.2 86 1.5 E 7 11 4 6 1010.8 - 2.0
24/08:00pm 19.9 20.9 16.9 83 1.9 NNE 7 9 4 5 1010.8 - 2.0
24/07:30pm 20.5 21.7 16.9 80 2.2 E 6 7 3 4 1010.2 - 2.0
24/07:00pm 20.7 21.6 16.7 78 2.5 SE 7 7 4 4 1010.0 - 2.0
24/06:30pm 21.2 22.7 15.7 71 3.4 W 2 7 1 4 1009.8 - 2.0
24/06:00pm 21.2 23.4 16.4 74 3.0 CALM 0 0 0 0 1009.5 1008.2 2.0
24/05:30pm 20.6 20.1 17.0 80 2.2 NE 15 19 8 10 1009.2 - 2.0
24/05:00pm 20.5 21.5 16.3 77 2.6 NNW 6 9 3 5 1010.5 - 2.0
24/04:30pm 20.4 21.6 16.8 80 2.2 WNW 6 9 3 5 1011.2 - 2.0
24/04:00pm 20.1 20.8 17.1 83 1.9 W 9 11 5 6 1012.1 - 2.0
24/03:30pm 19.5 20.1 16.7 84 1.7 SW 9 13 5 7 1012.5 - 1.8
24/03:00pm 19.5 19.1 16.2 81 2.0 WSW 13 17 7 9 1013.1 1011.8 1.0
24/02:30pm 20.4 19.2 16.0 76 2.7 W 17 22 9 12 1013.3 - 0.2
24/02:00pm 21.7 19.8 15.1 66 4.0 W 19 26 10 14 1013.7 - 0.0
24/01:30pm 23.3 21.2 14.8 59 5.2 W 19 30 10 16 1013.3 - 0.0
24/01:00pm 25.2 22.7 14.0 49 6.8 W 20 26 11 14 1013.4 - 0.0
24/12:30pm 25.1 23.4 13.6 49 6.9 W 15 22 8 12 1013.3 - 0.0
24/12:00pm 25.2 23.0 14.3 50 6.6 W 19 28 10 15 1013.9 1012.6 0.0
24/11:30am 24.3 21.6 13.5 51 6.5 WNW 20 26 11 14 1014.5 - 0.0
24/11:00am 25.3 23.4 11.8 43 7.9 N 13 24 7 13 1014.6 - 0.0
24/10:30am 24.9 24.4 12.8 47 7.2 NNW 7 11 4 6 1014.3 - 0.0
24/10:00am 24.2 23.3 12.5 48 6.9 WNW 9 11 5 6 1014.8 - 0.0
24/09:30am 24.1 22.0 12.4 48 6.9 WSW 15 19 8 10 1015.0 - 0.0
24/09:00am 23.9 23.4 13.7 53 6.1 SW 9 13 5 7 1015.4 1014.2 0.2
24/08:30am 22.8 20.0 13.3 55 5.6 SSW 20 28 11 15 1015.7 - 0.2
24/08:00am 22.1 23.5 16.4 70 3.5 ESE 4 7 2 4 1016.3 - 0.2
24/07:30am 20.7 22.0 17.5 82 2.0 E 7 9 4 5 1016.6 - 0.2
24/07:00am 19.2 20.0 16.4 84 1.7 SSE 7 7 4 4 1016.2 - 0.2
24/06:30am 19.3 21.4 16.2 82 1.9 CALM 0 0 0 0 1016.4 - 0.0
24/06:00am 19.0 20.2 15.9 82 1.9 S 4 6 2 3 1016.4 1015.1 0.0
24/05:30am 19.2 19.5 15.9 81 2.0 E 9 13 5 7 1016.4 - 0.0
24/05:00am 19.4 19.7 15.9 80 2.1 SSE 9 11 5 6 1016.8 - 0.0
24/04:30am 19.7 19.2 15.8 78 2.4 NW 13 15 7 8 1016.7 - 0.0
24/04:00am 19.5 18.5 15.6 78 2.4 ESE 15 19 8 10 1014.9 - 0.0
24/03:30am 20.9 20.8 15.0 69 3.6 E 9 13 5 7 1016.1 - 0.0
24/03:00am 22.3 21.7 14.7 62 4.6 W 11 15 6 8 1017.5 1016.2 0.0
24/02:53am 22.1 21.4 14.2 61 4.7 W 11 17 6 9 1016.9 - 0.0
24/02:30am 21.8 21.5 13.4 59 5.0 WSW 7 9 4 5 1014.9 - 0.0
24/02:00am 23.2 22.4 12.8 52 6.1 NNE 9 15 5 8 1014.5 - 0.0
24/01:30am 22.5 21.5 13.3 56 5.4 E 11 19 6 10 1014.3 - 0.0
24/01:00am 22.5 20.8 13.6 57 5.3 SE 15 22 8 12 1014.3 - 0.0
24/12:30am 20.2 19.9 13.4 65 4.0 S 7 9 4 5 1015.9 - 0.0
24/12:00am 22.2 23.1 13.0 56 5.4 CALM 0 0 0 0 1015.3 1014.1 0.0
 
Date/Time
EDT
Temp
°C
App
Temp
°C
Dew
Point
Rel
Hum
%
Delta-T
°C
Wind Press
QNH
hPa
Press
MSL
hPa
Rain
since 9 am
mm
Dir
 
Spd
km/h
Gust
km/h
Spd
kts
Gust
kts
23/11:30pm 21.4 21.0 12.3 56 5.3 ENE 6 11 3 6 1015.2 - 0.0
23/11:00pm 22.7 23.3 13.2 55 5.6 SE 2 6 1 3 1015.3 - 0.0
23/10:30pm 22.9 22.2 13.1 54 5.8 E 9 13 5 7 1014.7 - 0.0
23/10:00pm 22.1 22.3 11.8 52 5.9 W 2 9 1 5 1014.4 - 0.0
23/09:30pm 23.2 21.7 10.6 45 7.1 ESE 9 9 5 5 1014.1 - 0.0
23/09:00pm 25.7 24.1 11.5 41 8.3 ENE 11 13 6 7 1013.5 1012.2 0.0
23/08:30pm 26.5 23.8 11.8 40 8.6 NE 17 26 9 14 1013.2 - 0.0
23/08:00pm 27.9 22.4 10.6 34 10.0 N 30 39 16 21 1013.2 - 0.0

Other Formats:

Comma delimited format used in spreadsheet applications
http://www.bom.gov.au/fwo/IDN60801/IDN60801.94926.axf

JavaScript Object Notation format (JSON) in row-major order
http://www.bom.gov.au/fwo/IDN60801/IDN60801.94926.json